Time;durP1;ratioP1;P1;durP2;ratioP2;P2;SDS_P1;SDS_P2;PMS_P1;PMS_P2;Temp;Humidity;BMP_temperature;BMP_pressure;BME280_temperature;BME280_humidity;BME280_pressure;Samples;Min_cycle;Max_cycle;Signal;HPM_P1;HPM_P2
2021/01/17 00:00:49;;;;;;;22.17;13.63;;;;;;;0.08;77.30;98954.41;4816037;29;20245;-81
2021/01/17 00:03:16;;;;;;;24.80;14.18;;;;;;;0.02;77.21;98954.56;4829536;29;20213;-83
2021/01/17 00:05:43;;;;;;;26.55;14.45;;;;;;;-0.04;78.50;98945.94;4827922;29;20316;-84
2021/01/17 00:08:14;;;;;;;22.73;13.95;;;;;;;0.06;78.62;98947.44;4836993;29;20253;-82
2021/01/17 00:10:41;;;;;;;23.80;14.63;;;;;;;-0.03;77.69;98940.63;4829495;29;20260;-81
2021/01/17 00:13:08;;;;;;;26.10;13.93;;;;;;;-0.08;78.07;98938.16;4805221;29;20327;-83
2021/01/17 00:15:35;;;;;;;23.95;13.15;;;;;;;-0.03;78.20;98942.41;4819763;29;20389;-84
2021/01/17 00:18:02;;;;;;;23.88;14.15;;;;;;;-0.07;78.12;98931.03;4818042;29;20201;-83
2021/01/17 00:20:29;;;;;;;22.90;14.30;;;;;;;-0.02;78.13;98923.88;4814859;29;20241;-80
2021/01/17 00:23:01;;;;;;;23.25;14.13;;;;;;;-0.01;79.00;98927.34;4811154;29;20225;-82
2021/01/17 00:25:27;;;;;;;23.42;13.82;;;;;;;0.20;78.33;98919.72;4825998;29;20324;-82
2021/01/17 00:28:00;;;;;;;23.58;13.73;;;;;;;0.05;78.83;98914.88;4830491;29;20718;-83
2021/01/17 00:30:29;;;;;;;23.20;14.35;;;;;;;0.06;79.17;98905.13;4818066;29;20233;-81
2021/01/17 00:32:57;;;;;;;25.02;14.50;;;;;;;0.01;80.18;98904.41;4817717;29;20281;-82
2021/01/17 00:35:25;;;;;;;21.35;13.82;;;;;;;0.21;79.30;98897.66;4811352;29;20222;-83
2021/01/17 00:37:57;;;;;;;21.33;14.55;;;;;;;0.40;78.13;98895.38;4809901;29;20237;-81
2021/01/17 00:40:25;;;;;;;22.30;14.35;;;;;;;0.29;79.23;98895.69;4827635;29;20248;-84
2021/01/17 00:42:52;;;;;;;24.05;14.23;;;;;;;0.25;79.93;98887.84;4821383;29;20229;-83
2021/01/17 00:45:19;;;;;;;21.45;13.75;;;;;;;0.23;80.12;98892.31;4817296;29;20214;-83
2021/01/17 00:47:48;;;;;;;22.77;14.55;;;;;;;0.43;78.06;98880.28;4816114;29;20226;-83
2021/01/17 00:50:18;;;;;;;21.58;13.27;;;;;;;0.33;78.01;98878.78;4818229;29;20293;-82
2021/01/17 00:52:45;;;;;;;22.05;13.75;;;;;;;0.19;79.36;98874.81;4813743;29;20233;-82
2021/01/17 00:55:12;;;;;;;24.50;14.30;;;;;;;0.17;79.88;98869.59;4816132;29;20232;-84
2021/01/17 00:57:40;;;;;;;23.02;14.55;;;;;;;0.13;80.98;98862.63;4816501;29;20214;-84
2021/01/17 01:00:11;;;;;;;21.38;12.93;;;;;;;0.08;80.98;98859.25;4828222;29;20222;-83
2021/01/17 01:02:54;;;;;;;25.98;15.38;;;;;;;0.49;79.08;98858.94;4827229;29;20224;-83
2021/01/17 01:05:24;;;;;;;20.48;13.32;;;;;;;0.39;77.69;98854.81;4799077;29;20230;-83
2021/01/17 01:07:51;;;;;;;24.30;13.60;;;;;;;0.25;78.96;98841.13;4815196;29;20237;-83
2021/01/17 01:10:20;;;;;;;21.60;13.95;;;;;;;0.19;80.13;98857.19;4797235;29;20238;-85
2021/01/17 01:12:46;;;;;;;22.60;14.50;;;;;;;0.20;80.41;98843.03;4813754;29;20332;-81
2021/01/17 01:15:13;;;;;;;26.25;16.00;;;;;;;0.18;80.84;98847.53;4812503;29;20237;-83
2021/01/17 01:17:39;;;;;;;22.15;13.75;;;;;;;0.20;81.16;98848.34;4817146;29;20239;-82
2021/01/17 01:20:06;;;;;;;23.63;14.95;;;;;;;0.22;80.97;98846.53;4832613;29;20324;-83
2021/01/17 01:22:32;;;;;;;22.15;14.00;;;;;;;0.24;80.49;98838.53;4811041;29;20316;-82
2021/01/17 01:24:58;;;;;;;25.33;14.70;;;;;;;0.11;80.05;98835.41;4811027;29;20241;-82
2021/01/17 01:27:25;;;;;;;21.95;13.73;;;;;;;0.36;79.83;98836.41;4837264;29;20194;-80
2021/01/17 01:29:51;;;;;;;20.23;13.10;;;;;;;0.40;79.89;98840.69;4821242;29;20252;-81
2021/01/17 01:32:17;;;;;;;24.48;14.80;;;;;;;0.57;78.54;98842.81;4827154;29;20236;-83
2021/01/17 01:34:43;;;;;;;22.10;14.25;;;;;;;0.43;78.36;98832.66;4797054;29;20221;-83
2021/01/17 01:37:10;;;;;;;22.85;13.93;;;;;;;0.48;78.92;98827.22;4830814;29;20654;-83
2021/01/17 01:39:38;;;;;;;26.80;15.00;;;;;;;0.38;79.03;98831.06;4821964;29;20218;-80
2021/01/17 01:42:05;;;;;;;20.25;13.90;;;;;;;0.35;79.02;98831.16;4823346;29;20654;-81
2021/01/17 01:44:32;;;;;;;23.73;13.27;;;;;;;0.18;79.89;98834.31;4807133;29;20297;-81
2021/01/17 01:46:58;;;;;;;22.17;13.60;;;;;;;0.22;80.21;98829.78;4807267;29;20244;-82
2021/01/17 01:49:28;;;;;;;23.27;15.55;;;;;;;0.32;80.06;98833.91;4804716;29;20225;-81
2021/01/17 01:52:00;;;;;;;27.67;15.48;;;;;;;0.25;80.30;98838.50;4836314;29;20241;-81
2021/01/17 01:54:27;;;;;;;28.73;15.93;;;;;;;0.22;80.47;98835.97;4820178;29;20197;-80
2021/01/17 01:56:54;;;;;;;20.10;14.30;;;;;;;0.27;80.48;98836.66;4824578;29;20194;-80
2021/01/17 01:59:21;;;;;;;25.77;15.23;;;;;;;0.07;80.50;98836.38;4817506;29;20850;-81
2021/01/17 02:01:53;;;;;;;25.23;15.70;;;;;;;0.25;80.21;98838.50;4808730;29;20240;-81
2021/01/17 02:04:27;;;;;;;24.50;14.15;;;;;;;0.35;79.67;98836.44;4804818;29;20237;-82
2021/01/17 02:07:25;;;;;;;19.75;14.52;;;;;;;0.60;78.75;98838.28;4823405;29;20618;-81
2021/01/17 02:09:51;;;;;;;23.58;14.00;;;;;;;0.51;77.52;98840.34;4812751;29;20233;-81
2021/01/17 02:12:28;;;;;;;25.65;14.48;;;;;;;0.31;78.03;98835.69;4832257;29;20202;-79
2021/01/17 02:15:03;;;;;;;26.33;14.38;;;;;;;0.19;78.81;98835.16;4808024;29;20225;-82
2021/01/17 02:17:31;;;;;;;25.50;14.68;;;;;;;0.20;78.98;98835.13;4818530;29;20236;-81
2021/01/17 02:20:00;;;;;;;24.75;15.07;;;;;;;0.19;79.12;98835.16;4815104;29;20240;-82
2021/01/17 02:22:30;;;;;;;20.35;14.35;;;;;;;0.29;78.62;98836.63;4814824;29;20257;-82
2021/01/17 02:25:07;;;;;;;26.02;15.55;;;;;;;0.27;78.78;98844.59;4812864;29;20260;-82
2021/01/17 02:27:35;;;;;;;22.10;12.85;;;;;;;0.28;78.69;98833.09;4810188;29;20201;-84
2021/01/17 02:30:06;;;;;;;24.40;15.27;;;;;;;0.15;78.49;98829.09;4816030;29;20221;-83
2021/01/17 02:32:36;;;;;;;24.17;14.25;;;;;;;0.19;78.15;98830.75;4827386;29;20229;-81
2021/01/17 02:35:03;;;;;;;21.63;14.10;;;;;;;0.10;78.04;98825.75;4813515;29;20229;-82
2021/01/17 02:37:40;;;;;;;22.48;13.48;;;;;;;0.08;78.00;98824.91;4831413;29;20263;-82
2021/01/17 02:40:13;;;;;;;21.58;13.10;;;;;;;0.00;78.46;98821.63;4819607;29;20241;-80
2021/01/17 02:42:41;;;;;;;23.88;14.18;;;;;;;0.00;78.46;98807.56;4832528;29;20211;-84
2021/01/17 02:45:08;;;;;;;28.80;14.82;;;;;;;0.01;78.42;98810.13;4826098;29;20193;-80
2021/01/17 02:47:34;;;;;;;25.92;14.30;;;;;;;0.06;78.74;98807.34;4818135;29;20226;-80
2021/01/17 02:50:02;;;;;;;24.60;15.00;;;;;;;0.12;78.14;98809.81;4839738;29;20258;-80
2021/01/17 02:52:38;;;;;;;23.05;13.48;;;;;;;0.14;77.67;98810.66;4838562;29;20230;-79
2021/01/17 02:55:05;;;;;;;20.55;14.30;;;;;;;0.13;77.96;98812.41;4820002;29;20228;-82
2021/01/17 02:57:36;;;;;;;23.42;14.25;;;;;;;0.10;77.90;98812.53;4816782;29;20192;-84
2021/01/17 03:00:12;;;;;;;24.02;14.48;;;;;;;0.13;78.01;98807.13;4833075;29;20229;-82
2021/01/17 03:02:44;;;;;;;21.83;14.15;;;;;;;0.15;78.62;98801.81;4837978;29;20243;-80
2021/01/17 03:05:18;;;;;;;25.52;15.60;;;;;;;0.01;78.57;98804.84;4826887;29;20237;-81
2021/01/17 03:07:53;;;;;;;24.05;14.25;;;;;;;-0.08;79.27;98803.41;4826594;29;20212;-81
2021/01/17 03:10:21;;;;;;;28.65;15.65;;;;;;;-0.03;79.57;98797.94;4824394;29;20236;-80
2021/01/17 03:12:48;;;;;;;23.50;14.82;;;;;;;-0.13;79.66;98804.38;4822797;29;20242;-82
2021/01/17 03:15:16;;;;;;;25.70;14.20;;;;;;;-0.09;79.76;98812.25;4824152;29;20194;-81
2021/01/17 03:17:43;;;;;;;27.50;14.82;;;;;;;-0.06;80.09;98819.16;4819566;29;20255;-82
2021/01/17 03:20:10;;;;;;;27.90;15.60;;;;;;;-0.13;80.16;98800.84;4818592;29;20263;-82
2021/01/17 03:22:37;;;;;;;26.73;15.23;;;;;;;-0.17;80.81;98805.38;4821187;29;20257;-82
2021/01/17 03:25:03;;;;;;;25.55;14.77;;;;;;;-0.01;80.75;98811.97;4834772;29;20237;-82
2021/01/17 03:27:37;;;;;;;22.73;14.32;;;;;;;0.01;80.18;98807.47;4830937;29;20205;-82
2021/01/17 03:30:04;;;;;;;27.13;16.23;;;;;;;-0.09;80.95;98797.22;4826299;29;20249;-83
2021/01/17 03:32:30;;;;;;;24.23;14.43;;;;;;;0.12;79.69;98797.47;4821486;29;20227;-82
2021/01/17 03:34:56;;;;;;;26.27;15.50;;;;;;;0.15;79.59;98800.00;4841138;29;20244;-83
2021/01/17 03:37:22;;;;;;;26.48;14.80;;;;;;;0.02;79.32;98800.44;4819545;29;20221;-81
2021/01/17 03:39:48;;;;;;;25.05;16.25;;;;;;;-0.03;78.92;98808.50;4837623;29;20262;-81
2021/01/17 03:42:14;;;;;;;24.70;15.65;;;;;;;-0.03;79.36;98812.91;4824700;29;20191;-82
2021/01/17 03:44:41;;;;;;;25.30;15.30;;;;;;;0.01;79.39;98806.63;4820490;29;20218;-82
2021/01/17 03:47:08;;;;;;;26.83;14.30;;;;;;;-0.13;79.72;98801.72;4836566;29;20264;-83
2021/01/17 03:49:36;;;;;;;27.70;16.40;;;;;;;-0.07;79.84;98801.56;4824885;29;20284;-82
2021/01/17 03:52:02;;;;;;;25.17;14.02;;;;;;;0.08;79.27;98798.47;4823369;29;20217;-82
2021/01/17 03:54:28;;;;;;;25.02;14.60;;;;;;;0.14;78.90;98810.66;4806442;29;20218;-83
2021/01/17 03:56:54;;;;;;;27.67;15.35;;;;;;;0.18;79.13;98812.28;4838641;29;20225;-83
2021/01/17 03:59:22;;;;;;;26.77;15.43;;;;;;;0.15;79.05;98810.59;4838377;29;20220;-82
2021/01/17 04:01:48;;;;;;;25.13;15.35;;;;;;;0.18;79.12;98818.44;4810188;29;20237;-83
2021/01/17 04:04:20;;;;;;;25.13;15.77;;;;;;;0.17;78.93;98816.72;4841331;29;20221;-82
2021/01/17 04:06:46;;;;;;;26.98;15.55;;;;;;;0.28;78.74;98819.88;4921319;23;20244;-83
2021/01/17 04:09:14;;;;;;;24.45;16.27;;;;;;;0.18;78.69;98820.22;4886313;29;20189;-80
2021/01/17 04:11:41;;;;;;;23.35;14.00;;;;;;;0.22;78.29;98825.38;4879102;29;20247;-81
2021/01/17 04:14:08;;;;;;;26.98;16.38;;;;;;;0.28;78.80;98825.16;4856503;29;20887;-83
2021/01/17 04:16:34;;;;;;;23.10;14.43;;;;;;;0.24;78.93;98823.56;4863301;29;20291;-81
2021/01/17 04:19:01;;;;;;;24.95;15.60;;;;;;;0.22;79.39;98829.78;4870293;29;20225;-82
2021/01/17 04:21:27;;;;;;;30.75;16.77;;;;;;;0.23;79.81;98832.41;4872186;29;20299;-80
2021/01/17 04:23:53;;;;;;;25.90;15.88;;;;;;;0.28;80.01;98830.47;4875249;29;20203;-83
2021/01/17 04:26:20;;;;;;;25.80;14.25;;;;;;;0.24;79.77;98826.19;4892829;29;20215;-82
2021/01/17 04:28:46;;;;;;;26.80;15.40;;;;;;;0.25;79.82;98827.91;4878462;29;20287;-82
2021/01/17 04:31:13;;;;;;;28.23;16.83;;;;;;;0.31;80.02;98819.81;4886852;29;20250;-79
2021/01/17 04:33:39;;;;;;;25.40;15.93;;;;;;;0.20;79.96;98816.59;4875785;29;20208;-80
2021/01/17 04:36:07;;;;;;;33.40;18.10;;;;;;;0.16;79.96;98822.91;4882271;29;20211;-81
2021/01/17 04:38:34;;;;;;;25.35;15.95;;;;;;;0.21;80.17;98823.63;4857608;29;20227;-80
2021/01/17 04:41:02;;;;;;;27.20;15.80;;;;;;;0.25;80.21;98825.28;4877586;29;20215;-80
2021/01/17 04:43:31;;;;;;;24.02;15.32;;;;;;;0.34;79.69;98821.50;4872100;29;20219;-83
2021/01/17 04:46:02;;;;;;;26.17;14.73;;;;;;;0.11;79.42;98823.94;4878008;29;20255;-80
2021/01/17 04:48:29;;;;;;;24.05;14.75;;;;;;;0.18;80.11;98823.72;4860851;29;20191;-82
2021/01/17 04:51:02;;;;;;;27.55;16.73;;;;;;;0.28;79.36;98826.97;4893178;29;20304;-80
2021/01/17 04:53:31;;;;;;;26.75;16.27;;;;;;;0.20;79.53;98828.97;4871953;29;20290;-82
2021/01/17 04:56:27;;;;;;;24.55;15.27;;;;;;;0.26;79.87;98831.44;4858254;29;20223;-81
2021/01/17 04:59:10;;;;;;;25.88;16.63;;;;;;;0.32;79.21;98829.47;4894495;29;20256;-82
2021/01/17 05:01:45;;;;;;;25.65;15.43;;;;;;;0.45;79.45;98828.19;4880168;29;20299;-81
2021/01/17 05:04:37;;;;;;;24.55;15.00;;;;;;;0.25;79.21;98827.03;4889083;29;20373;-82
2021/01/17 05:07:20;;;;;;;22.88;13.43;;;;;;;0.19;79.73;98829.88;4886969;29;20223;-82
2021/01/17 05:10:12;;;;;;;27.92;16.10;;;;;;;0.23;79.74;98827.13;4872519;29;20279;-82
2021/01/17 05:12:51;;;;;;;22.17;14.02;;;;;;;0.29;79.71;98826.06;4890359;29;20204;-82
2021/01/17 05:15:22;;;;;;;26.17;15.35;;;;;;;0.32;79.61;98825.97;4856925;29;20271;-82
2021/01/17 05:17:55;;;;;;;26.17;15.27;;;;;;;0.36;79.60;98827.59;4870754;29;20240;-79
2021/01/17 05:20:24;;;;;;;27.27;16.00;;;;;;;0.39;79.90;98832.81;4876261;29;20226;-83
2021/01/17 05:22:52;;;;;;;27.15;15.82;;;;;;;0.40;79.91;98834.53;4864698;29;20231;-83
2021/01/17 05:25:20;;;;;;;30.60;16.90;;;;;;;0.28;80.18;98829.63;4867324;29;20250;-82
2021/01/17 05:27:49;;;;;;;26.67;17.63;;;;;;;0.28;80.93;98819.88;4870760;29;20199;-83
2021/01/17 05:30:16;;;;;;;29.63;16.77;;;;;;;0.25;80.95;98827.91;4854813;29;20227;-83
2021/01/17 05:32:43;;;;;;;31.55;18.02;;;;;;;0.32;81.05;98821.53;4877099;29;20288;-80
2021/01/17 05:35:10;;;;;;;28.40;16.60;;;;;;;0.35;81.56;98820.59;4870554;29;20283;-82
2021/01/17 05:37:53;;;;;;;32.28;17.98;;;;;;;0.42;81.00;98823.00;4869107;29;20223;-83
2021/01/17 05:40:20;;;;;;;26.60;15.50;;;;;;;0.48;80.02;98827.22;4869692;29;20231;-84
2021/01/17 05:42:48;;;;;;;26.95;16.38;;;;;;;0.46;80.29;98819.34;4846917;29;20252;-83
2021/01/17 05:45:24;;;;;;;26.30;15.80;;;;;;;0.54;79.71;98822.63;4870710;29;20219;-83
2021/01/17 05:47:51;;;;;;;25.13;15.75;;;;;;;0.46;79.99;98823.78;4861990;29;20226;-82
2021/01/17 05:50:17;;;;;;;26.15;17.40;;;;;;;0.37;80.77;98822.28;4887462;29;20298;-82
2021/01/17 05:52:44;;;;;;;25.95;15.02;;;;;;;0.40;80.57;98814.22;4856107;29;20246;-82
2021/01/17 05:55:16;;;;;;;22.63;15.25;;;;;;;0.60;79.86;98806.53;4853466;29;20236;-82
2021/01/17 05:57:43;;;;;;;29.33;16.80;;;;;;;0.47;79.43;98807.84;4871953;29;20196;-82
2021/01/17 06:00:10;;;;;;;28.50;16.48;;;;;;;0.54;80.10;98809.41;4858438;29;20253;-82
2021/01/17 06:02:38;;;;;;;27.50;15.85;;;;;;;0.58;79.48;98815.47;4885770;29;20231;-81
2021/01/17 06:05:05;;;;;;;25.08;14.65;;;;;;;0.58;79.40;98818.13;4868047;29;20235;-81
2021/01/17 06:07:32;;;;;;;23.60;14.27;;;;;;;0.38;79.13;98820.47;4867123;29;20227;-81
2021/01/17 06:10:05;;;;;;;26.45;15.75;;;;;;;0.38;79.63;98826.66;4865648;29;20250;-83
2021/01/17 06:12:35;;;;;;;22.83;15.57;;;;;;;0.44;79.86;98825.59;4863351;29;20234;-83
2021/01/17 06:15:08;;;;;;;25.60;16.02;;;;;;;0.56;80.11;98820.81;4866901;29;20215;-83
2021/01/17 06:17:37;;;;;;;24.60;14.45;;;;;;;0.71;78.53;98824.75;4866446;29;20242;-83
2021/01/17 06:20:08;;;;;;;22.25;14.48;;;;;;;0.70;79.05;98830.94;4866608;29;20231;-84
2021/01/17 06:22:36;;;;;;;26.05;13.77;;;;;;;0.59;78.83;98825.97;4878752;29;20253;-83
2021/01/17 06:25:06;;;;;;;24.20;14.70;;;;;;;0.65;79.35;98833.72;4855638;29;20258;-83
2021/01/17 06:27:32;;;;;;;24.90;14.73;;;;;;;0.62;78.94;98840.91;4872827;29;20195;-82
2021/01/17 06:29:59;;;;;;;28.90;15.55;;;;;;;0.54;79.26;98835.84;4872754;29;20231;-82
2021/01/17 06:32:30;;;;;;;29.25;15.63;;;;;;;0.68;79.02;98836.28;4864481;29;20299;-83
2021/01/17 06:34:59;;;;;;;25.50;15.20;;;;;;;0.72;79.15;98834.41;4853779;29;20223;-82
2021/01/17 06:37:28;;;;;;;29.30;15.68;;;;;;;0.57;78.46;98838.41;4864033;29;20234;-81
2021/01/17 06:39:57;;;;;;;24.48;14.80;;;;;;;0.42;79.90;98846.81;4870728;29;20385;-82
2021/01/17 06:42:27;;;;;;;24.42;15.70;;;;;;;0.48;79.63;98843.97;4888491;29;20200;-81
2021/01/17 06:44:54;;;;;;;23.15;13.88;;;;;;;0.41;79.84;98847.69;4872812;29;20227;-83
2021/01/17 06:47:26;;;;;;;25.55;15.63;;;;;;;0.43;79.67;98859.13;4871906;29;20295;-81
2021/01/17 06:49:55;;;;;;;27.25;16.05;;;;;;;0.50;80.41;98847.44;4866561;29;20682;-81
2021/01/17 06:52:21;;;;;;;28.50;16.33;;;;;;;0.48;80.38;98854.56;4860342;29;20227;-83
2021/01/17 06:54:52;;;;;;;32.50;18.10;;;;;;;0.37;81.07;98861.94;4842638;29;20254;-82
2021/01/17 06:57:20;;;;;;;27.77;16.83;;;;;;;0.34;81.27;98869.94;4868695;29;20200;-81
2021/01/17 06:59:50;;;;;;;30.65;18.50;;;;;;;0.40;81.50;98864.47;4860819;29;20231;-82
2021/01/17 07:02:37;;;;;;;28.48;17.45;;;;;;;0.34;81.62;98872.59;4857700;29;20219;-83
2021/01/17 07:05:19;;;;;;;30.05;17.25;;;;;;;0.25;82.00;98867.59;4857339;29;20243;-83
2021/01/17 07:08:23;;;;;;;28.45;17.13;;;;;;;0.45;81.68;98873.16;4863494;29;20733;-82
2021/01/17 07:10:58;;;;;;;26.42;17.00;;;;;;;0.49;81.89;98889.78;4878255;29;20757;-83
2021/01/17 07:13:33;;;;;;;28.83;16.65;;;;;;;0.41;81.34;98894.44;4850237;29;20238;-83
2021/01/17 07:16:03;;;;;;;32.63;18.05;;;;;;;0.45;81.84;98896.94;4866777;29;20226;-84
2021/01/17 07:18:36;;;;;;;30.00;17.98;;;;;;;0.48;81.17;98891.59;4858955;29;20242;-84
2021/01/17 07:21:03;;;;;;;29.65;17.02;;;;;;;0.48;81.42;98888.94;4868506;29;20220;-82
2021/01/17 07:23:31;;;;;;;28.48;17.75;;;;;;;0.61;81.05;98898.25;4853169;29;20963;-84
2021/01/17 07:26:00;;;;;;;26.13;16.58;;;;;;;0.69;81.08;98892.72;4868373;29;20245;-83
2021/01/17 07:28:32;;;;;;;36.03;16.98;;;;;;;0.78;80.18;98892.44;4867395;29;20234;-82
2021/01/17 07:30:59;;;;;;;34.72;17.90;;;;;;;0.68;80.45;98893.63;4865949;29;20344;-82
2021/01/17 07:33:32;;;;;;;30.48;17.00;;;;;;;0.83;79.96;98895.78;4863910;29;20203;-82
2021/01/17 07:36:00;;;;;;;27.38;15.25;;;;;;;0.94;79.76;98904.28;4883107;29;20815;-83
2021/01/17 07:38:29;;;;;;;29.05;16.90;;;;;;;0.78;80.42;98908.31;4862659;29;20306;-84
2021/01/17 07:40:59;;;;;;;27.88;16.75;;;;;;;0.88;79.72;98909.75;4868754;29;20276;-82
2021/01/17 07:43:28;;;;;;;27.60;17.60;;;;;;;0.98;79.65;98911.22;4871044;29;20290;-82
2021/01/17 07:45:56;;;;;;;27.38;15.90;;;;;;;0.88;79.41;98913.28;4869941;29;20232;-80
2021/01/17 07:48:24;;;;;;;27.88;18.13;;;;;;;0.78;79.80;98922.41;4860405;29;20283;-81
2021/01/17 07:50:53;;;;;;;28.77;17.52;;;;;;;0.80;80.10;98920.59;4867602;29;20233;-82
2021/01/17 07:53:28;;;;;;;32.28;17.65;;;;;;;0.66;80.82;98929.84;4891100;29;20246;-81
2021/01/17 07:56:03;;;;;;;27.80;16.27;;;;;;;0.84;80.75;98931.97;4894209;29;20230;-81
2021/01/17 07:58:36;;;;;;;27.00;15.98;;;;;;;0.90;80.43;98926.47;4870580;29;20242;-83
2021/01/17 08:01:03;;;;;;;24.30;15.57;;;;;;;0.84;79.98;98926.66;4889428;29;20231;-81
2021/01/17 08:03:30;;;;;;;25.40;14.88;;;;;;;0.82;79.52;98928.47;4884136;29;20200;-83
2021/01/17 08:05:57;;;;;;;22.50;13.95;;;;;;;0.80;79.79;98944.41;4863873;29;20215;-82
2021/01/17 08:08:46;;;;;;;28.17;16.67;;;;;;;0.76;80.12;98945.41;4895375;29;20275;-83
2021/01/17 08:11:43;;;;;;;34.30;17.65;;;;;;;0.85;80.49;98945.13;4870832;29;20239;-83
2021/01/17 08:14:16;;;;;;;29.30;16.52;;;;;;;0.89;80.27;98945.88;4887505;29;20282;-83
2021/01/17 08:17:02;;;;;;;28.60;16.23;;;;;;;1.07;79.82;98946.22;4879797;29;20223;-83
2021/01/17 08:19:42;;;;;;;26.65;15.50;;;;;;;1.13;78.59;98950.44;4847146;29;20235;-82
2021/01/17 08:22:32;;;;;;;25.00;15.63;;;;;;;1.08;78.64;98955.88;4882690;29;20279;-82
2021/01/17 08:25:00;;;;;;;28.73;15.07;;;;;;;1.07;78.62;98959.44;4862994;29;20239;-83
2021/01/17 08:27:29;;;;;;;22.35;14.43;;;;;;;1.23;78.65;98960.69;4869286;29;20204;-81
2021/01/17 08:30:02;;;;;;;27.13;14.98;;;;;;;1.33;77.99;98962.16;4853395;29;20254;-82
2021/01/17 08:32:47;;;;;;;24.90;15.93;;;;;;;1.21;78.21;98967.84;4866263;29;20240;-83
2021/01/17 08:35:19;;;;;;;27.40;15.05;;;;;;;1.12;78.92;98970.78;4882697;29;20215;-82
2021/01/17 08:37:53;;;;;;;24.45;14.68;;;;;;;1.03;78.86;98964.91;4863708;29;20258;-83
2021/01/17 08:40:29;;;;;;;26.92;16.02;;;;;;;1.22;78.88;98976.66;4849319;29;20299;-83
2021/01/17 08:42:57;;;;;;;26.00;15.27;;;;;;;1.33;78.57;98974.50;4873061;29;20242;-83
2021/01/17 08:45:23;;;;;;;24.92;14.40;;;;;;;1.19;78.34;98974.09;4871974;29;20220;-83
2021/01/17 08:47:52;;;;;;;31.17;15.82;;;;;;;1.22;78.63;98982.81;4886780;29;20227;-83
2021/01/17 08:50:46;;;;;;;22.60;14.65;;;;;;;1.37;77.99;98987.59;4870479;29;20235;-82
2021/01/17 08:53:32;;;;;;;23.05;14.85;;;;;;;1.56;77.87;98996.72;4886490;29;20223;-83
2021/01/17 08:56:34;;;;;;;22.15;14.98;;;;;;;1.83;76.71;98987.88;4888079;29;20269;-81
2021/01/17 08:59:02;;;;;;;27.88;16.85;;;;;;;2.06;76.28;98995.91;4868404;29;20287;-82
2021/01/17 09:01:28;;;;;;;29.77;17.00;;;;;;;1.95;76.25;98990.13;4885784;29;20227;-83
2021/01/17 09:03:56;;;;;;;27.35;17.00;;;;;;;2.11;77.01;98988.69;4885153;29;20231;-82
2021/01/17 09:06:25;;;;;;;28.83;17.38;;;;;;;2.28;75.81;98991.63;4849579;29;20227;-83
2021/01/17 09:08:55;;;;;;;24.90;16.20;;;;;;;2.42;76.00;98984.03;4864239;29;20251;-81
2021/01/17 09:11:24;;;;;;;27.85;17.23;;;;;;;2.29;75.29;98990.69;4878213;29;20232;-82
2021/01/17 09:14:26;;;;;;;29.00;17.80;;;;;;;2.13;76.33;98994.78;4864218;29;20227;-81
2021/01/17 09:17:10;;;;;;;25.85;15.35;;;;;;;2.07;77.04;98997.63;4877904;29;20253;-83
2021/01/17 09:19:38;;;;;;;24.17;14.32;;;;;;;1.75;78.04;98997.84;4894545;29;20230;-82
2021/01/17 09:22:06;;;;;;;23.30;15.15;;;;;;;1.63;79.27;99003.56;4887634;29;20244;-81
2021/01/17 09:24:35;;;;;;;23.27;14.77;;;;;;;1.60;79.39;98995.72;4884430;29;20199;-81
2021/01/17 09:27:07;;;;;;;24.33;15.25;;;;;;;1.71;80.01;98998.00;4869401;29;20219;-82
2021/01/17 09:29:43;;;;;;;26.23;14.50;;;;;;;1.77;79.25;98993.38;4874167;29;20234;-83
2021/01/17 09:32:13;;;;;;;27.23;15.65;;;;;;;1.62;80.02;98999.16;4853767;29;20291;-82
2021/01/17 09:34:42;;;;;;;28.55;15.40;;;;;;;1.91;79.29;99001.75;4866572;29;20334;-83
2021/01/17 09:37:12;;;;;;;23.30;14.80;;;;;;;1.93;79.24;99010.50;4871218;29;20230;-83
2021/01/17 09:39:46;;;;;;;25.48;15.45;;;;;;;1.89;79.24;99010.66;4864544;29;20260;-82
2021/01/17 09:42:14;;;;;;;28.92;15.68;;;;;;;1.93;79.30;99010.50;4885062;29;20206;-81
2021/01/17 09:44:42;;;;;;;29.13;17.30;;;;;;;1.90;79.49;99015.91;4865752;29;20240;-83
2021/01/17 09:47:20;;;;;;;27.10;16.67;;;;;;;1.97;79.77;99016.56;4878021;29;20223;-81
2021/01/17 09:49:48;;;;;;;26.30;14.95;;;;;;;2.16;78.39;99023.00;4882818;29;20211;-80
2021/01/17 09:52:19;;;;;;;27.50;16.48;;;;;;;2.30;78.22;99024.25;4879288;29;20203;-81
2021/01/17 09:54:47;;;;;;;28.45;16.00;;;;;;;2.47;77.27;99024.56;4896203;29;20273;-81
2021/01/17 09:57:18;;;;;;;24.20;15.48;;;;;;;2.44;76.98;99031.75;4870647;29;20671;-82
2021/01/17 09:59:45;;;;;;;30.77;15.60;;;;;;;2.45;76.93;99036.13;4861260;29;20256;-81
2021/01/17 10:02:11;;;;;;;27.95;16.27;;;;;;;2.48;77.87;99042.19;4870920;29;20231;-83
2021/01/17 10:04:40;;;;;;;25.50;14.65;;;;;;;2.72;77.20;99051.09;4861297;29;20228;-82
2021/01/17 10:07:13;;;;;;;25.98;14.57;;;;;;;2.29;76.92;99045.53;4861757;29;20728;-83
2021/01/17 10:09:39;;;;;;;25.17;14.93;;;;;;;2.12;78.34;99045.25;4861237;29;20246;-83
2021/01/17 10:12:07;;;;;;;27.73;15.60;;;;;;;2.20;78.41;99049.34;4871458;29;20208;-84
2021/01/17 10:14:33;;;;;;;27.40;16.95;;;;;;;2.03;78.89;99045.53;4873741;29;20232;-84
2021/01/17 10:17:02;;;;;;;26.25;15.90;;;;;;;2.31;80.21;99047.22;4867456;23;20242;-88
2021/01/17 10:19:34;;;;;;;31.50;16.75;;;;;;;2.56;80.16;99044.59;4863595;29;20246;-88
2021/01/17 10:22:02;;;;;;;27.02;15.80;;;;;;;2.77;77.34;99047.31;4869241;29;20291;-85
2021/01/17 10:24:32;;;;;;;24.33;14.35;;;;;;;2.84;77.10;99046.19;4887602;29;20210;-81
2021/01/17 10:27:01;;;;;;;25.05;13.65;;;;;;;2.70;76.45;99045.81;4864195;29;20596;-86
2021/01/17 10:29:30;;;;;;;25.50;14.40;;;;;;;2.82;77.25;99047.19;4893584;29;20322;-85
2021/01/17 10:32:03;;;;;;;24.17;14.23;;;;;;;2.60;77.50;99055.03;4873398;29;20397;-86
2021/01/17 10:34:32;;;;;;;21.10;13.80;;;;;;;2.22;78.92;99050.19;4865767;29;20287;-87
2021/01/17 10:37:02;;;;;;;27.88;15.25;;;;;;;2.33;79.69;99053.31;4871199;29;20241;-86
2021/01/17 10:39:29;;;;;;;26.95;15.63;;;;;;;2.37;79.71;99054.13;4870036;29;20195;-86
2021/01/17 10:42:05;;;;;;;26.17;14.65;;;;;;;2.30;80.16;99053.44;4870717;29;20274;-87
2021/01/17 10:44:34;;;;;;;27.50;15.63;;;;;;;2.35;80.71;99054.16;4903337;29;20214;-85
2021/01/17 10:47:12;;;;;;;28.83;17.00;;;;;;;2.59;80.47;99050.66;4870508;29;20247;-84
2021/01/17 10:49:41;;;;;;;29.10;15.70;;;;;;;2.78;79.22;99046.44;4898371;29;20233;-84
2021/01/17 10:52:20;;;;;;;29.00;16.08;;;;;;;2.97;78.67;99047.47;4879719;29;20298;-85
2021/01/17 10:54:48;;;;;;;24.83;15.63;;;;;;;2.64;78.78;99053.16;4896465;29;20263;-86
2021/01/17 10:57:19;;;;;;;22.55;14.70;;;;;;;2.76;79.95;99050.91;4879366;29;20222;-83
2021/01/17 11:00:10;;;;;;;22.83;14.65;;;;;;;2.85;79.03;99047.94;4894120;29;20225;-84
2021/01/17 11:02:36;;;;;;;22.05;13.98;;;;;;;2.99;79.15;99045.66;4901523;29;20274;-85
2021/01/17 11:05:06;;;;;;;22.02;13.40;;;;;;;3.04;79.67;99043.69;4882559;29;20222;-86
2021/01/17 11:07:32;;;;;;;22.63;13.90;;;;;;;3.10;78.87;99048.78;4898266;29;20294;-84
2021/01/17 11:10:14;;;;;;;22.65;12.88;;;;;;;2.87;78.68;99059.38;4900885;29;20239;-85
2021/01/17 11:12:41;;;;;;;21.38;12.70;;;;;;;2.84;79.60;99058.63;4894137;29;20196;-85
2021/01/17 11:15:15;;;;;;;20.60;11.80;;;;;;;2.74;78.65;99059.84;4896072;29;20706;-81
2021/01/17 11:17:56;;;;;;;20.80;13.63;;;;;;;2.77;80.84;99055.28;4885463;29;20219;-82
2021/01/17 11:21:13;;;;;;;26.73;15.27;;;;;;;2.87;80.87;99054.06;4893414;29;20318;-84
2021/01/17 11:23:39;;;;;;;25.33;14.20;;;;;;;3.05;79.48;99055.16;4889266;29;20219;-82
2021/01/17 11:26:06;;;;;;;20.27;13.40;;;;;;;2.89;79.63;99056.66;4879604;29;20234;-82
2021/01/17 11:28:33;;;;;;;22.48;13.45;;;;;;;2.58;80.45;99058.66;4880616;29;20227;-84
2021/01/17 11:31:20;;;;;;;27.70;14.82;;;;;;;2.82;80.22;99058.66;4877109;29;20222;-78
2021/01/17 11:33:47;;;;;;;24.85;14.25;;;;;;;2.91;79.77;99068.09;4877723;29;20385;-82
2021/01/17 11:36:22;;;;;;;23.38;15.13;;;;;;;2.93;79.42;99060.91;4877274;29;20207;-82
2021/01/17 11:38:57;;;;;;;24.80;14.80;;;;;;;2.84;79.75;99053.31;4883416;29;20246;-86
2021/01/17 11:41:33;;;;;;;25.33;14.73;;;;;;;2.90;79.60;99061.91;4878941;29;20261;-84